sensor_id;sensor_type;location;lat;lon;timestamp;temperature;humidity
57624;SHT30;43448;52.264;20.644;2023-08-24T00:00:00;26.94;48.72
57624;SHT30;43448;52.264;20.644;2023-08-24T00:10:00;27.05;48.30
57624;SHT30;43448;52.264;20.644;2023-08-24T00:20:00;27.12;47.86
57624;SHT30;43448;52.264;20.644;2023-08-24T00:30:02;27.15;47.65
57624;SHT30;43448;52.264;20.644;2023-08-24T00:40:01;27.13;47.47
57624;SHT30;43448;52.264;20.644;2023-08-24T00:50:00;27.17;47.31
57624;SHT30;43448;52.264;20.644;2023-08-24T01:00:03;27.22;47.09
57624;SHT30;43448;52.264;20.644;2023-08-24T01:10:00;27.21;47.06
57624;SHT30;43448;52.264;20.644;2023-08-24T01:20:02;27.21;46.86
57624;SHT30;43448;52.264;20.644;2023-08-24T01:30:01;27.13;46.82
57624;SHT30;43448;52.264;20.644;2023-08-24T01:40:04;27.15;46.84
57624;SHT30;43448;52.264;20.644;2023-08-24T01:50:01;27.12;46.75
57624;SHT30;43448;52.264;20.644;2023-08-24T02:00:00;27.13;46.70
57624;SHT30;43448;52.264;20.644;2023-08-24T02:10:00;27.03;46.88
57624;SHT30;43448;52.264;20.644;2023-08-24T02:20:00;26.88;46.99
57624;SHT30;43448;52.264;20.644;2023-08-24T02:30:00;26.77;47.01
57624;SHT30;43448;52.264;20.644;2023-08-24T02:40:00;26.65;47.23
57624;SHT30;43448;52.264;20.644;2023-08-24T02:50:00;26.57;47.43
57624;SHT30;43448;52.264;20.644;2023-08-24T03:00:00;26.52;47.51
57624;SHT30;43448;52.264;20.644;2023-08-24T03:10:00;26.47;47.61
57624;SHT30;43448;52.264;20.644;2023-08-24T03:20:00;26.37;47.89
57624;SHT30;43448;52.264;20.644;2023-08-24T03:30:00;26.50;47.81
57624;SHT30;43448;52.264;20.644;2023-08-24T03:40:00;26.65;48.11
57624;SHT30;43448;52.264;20.644;2023-08-24T03:50:00;26.72;48.11
57624;SHT30;43448;52.264;20.644;2023-08-24T04:00:00;26.77;48.76
57624;SHT30;43448;52.264;20.644;2023-08-24T04:10:00;26.78;48.77
57624;SHT30;43448;52.264;20.644;2023-08-24T04:20:00;26.88;48.94
57624;SHT30;43448;52.264;20.644;2023-08-24T04:30:00;27.06;49.20
57624;SHT30;43448;52.264;20.644;2023-08-24T04:40:00;27.13;49.06
57624;SHT30;43448;52.264;20.644;2023-08-24T04:50:00;27.21;48.88
57624;SHT30;43448;52.264;20.644;2023-08-24T05:00:00;27.25;48.69
57624;SHT30;43448;52.264;20.644;2023-08-24T05:10:00;27.28;48.70
57624;SHT30;43448;52.264;20.644;2023-08-24T05:20:00;27.29;48.75
57624;SHT30;43448;52.264;20.644;2023-08-24T05:30:00;27.30;48.65
57624;SHT30;43448;52.264;20.644;2023-08-24T05:40:01;27.34;48.61
57624;SHT30;43448;52.264;20.644;2023-08-24T05:50:00;27.34;48.63
57624;SHT30;43448;52.264;20.644;2023-08-24T06:00:00;27.33;48.65
57624;SHT30;43448;52.264;20.644;2023-08-24T06:10:00;27.34;48.61
57624;SHT30;43448;52.264;20.644;2023-08-24T06:20:00;27.34;48.73
57624;SHT30;43448;52.264;20.644;2023-08-24T06:30:00;27.39;48.74
57624;SHT30;43448;52.264;20.644;2023-08-24T06:40:00;27.37;48.81
57624;SHT30;43448;52.264;20.644;2023-08-24T06:50:00;27.37;48.86
57624;SHT30;43448;52.264;20.644;2023-08-24T07:00:00;27.37;48.70
57624;SHT30;43448;52.264;20.644;2023-08-24T07:10:00;27.42;48.83
57624;SHT30;43448;52.264;20.644;2023-08-24T07:20:00;27.43;48.95
57624;SHT30;43448;52.264;20.644;2023-08-24T07:30:01;27.46;48.91
57624;SHT30;43448;52.264;20.644;2023-08-24T07:40:00;27.46;49.00
57624;SHT30;43448;52.264;20.644;2023-08-24T07:50:00;27.49;49.03
57624;SHT30;43448;52.264;20.644;2023-08-24T08:00:00;27.52;49.03
57624;SHT30;43448;52.264;20.644;2023-08-24T08:10:00;27.53;49.02
57624;SHT30;43448;52.264;20.644;2023-08-24T08:20:00;27.57;49.00
57624;SHT30;43448;52.264;20.644;2023-08-24T08:30:00;27.60;48.98
57624;SHT30;43448;52.264;20.644;2023-08-24T08:40:00;27.64;48.95
57624;SHT30;43448;52.264;20.644;2023-08-24T08:50:02;27.65;48.95
57624;SHT30;43448;52.264;20.644;2023-08-24T09:00:00;27.70;48.90
57624;SHT30;43448;52.264;20.644;2023-08-24T09:10:00;27.73;48.79
57624;SHT30;43448;52.264;20.644;2023-08-24T09:20:06;27.79;48.70
57624;SHT30;43448;52.264;20.644;2023-08-24T09:30:00;27.77;48.57
57624;SHT30;43448;52.264;20.644;2023-08-24T09:40:01;27.84;48.47
57624;SHT30;43448;52.264;20.644;2023-08-24T09:50:00;27.87;48.34
57624;SHT30;43448;52.264;20.644;2023-08-24T10:00:00;27.94;48.27
57624;SHT30;43448;52.264;20.644;2023-08-24T10:10:02;27.97;48.19
57624;SHT30;43448;52.264;20.644;2023-08-24T10:20:01;28.04;48.09
57624;SHT30;43448;52.264;20.644;2023-08-24T10:30:00;28.07;47.96
57624;SHT30;43448;52.264;20.644;2023-08-24T10:40:00;28.12;47.74
57624;SHT30;43448;52.264;20.644;2023-08-24T10:50:00;28.15;47.66
57624;SHT30;43448;52.264;20.644;2023-08-24T11:00:04;28.21;48.70
57624;SHT30;43448;52.264;20.644;2023-08-24T11:10:11;28.28;48.87
57624;SHT30;43448;52.264;20.644;2023-08-24T11:20:00;28.29;48.77
57624;SHT30;43448;52.264;20.644;2023-08-24T11:30:00;28.36;48.74
57624;SHT30;43448;52.264;20.644;2023-08-24T11:40:00;28.38;48.55
57624;SHT30;43448;52.264;20.644;2023-08-24T11:50:00;28.42;48.32
57624;SHT30;43448;52.264;20.644;2023-08-24T12:00:01;28.42;48.04
57624;SHT30;43448;52.264;20.644;2023-08-24T12:10:01;28.41;48.10
57624;SHT30;43448;52.264;20.644;2023-08-24T12:20:01;28.38;48.07
57624;SHT30;43448;52.264;20.644;2023-08-24T12:30:01;28.35;48.26
57624;SHT30;43448;52.264;20.644;2023-08-24T12:40:00;28.39;48.36
57624;SHT30;43448;52.264;20.644;2023-08-24T12:50:00;28.43;48.84
57624;SHT30;43448;52.264;20.644;2023-08-24T13:00:00;28.46;48.79
57624;SHT30;43448;52.264;20.644;2023-08-24T13:10:00;28.50;48.62
57624;SHT30;43448;52.264;20.644;2023-08-24T13:20:00;28.52;48.37
57624;SHT30;43448;52.264;20.644;2023-08-24T13:30:01;28.55;48.27
57624;SHT30;43448;52.264;20.644;2023-08-24T13:40:00;28.60;48.15
57624;SHT30;43448;52.264;20.644;2023-08-24T13:50:00;28.64;48.04
57624;SHT30;43448;52.264;20.644;2023-08-24T14:00:00;28.69;47.89
57624;SHT30;43448;52.264;20.644;2023-08-24T14:10:00;28.73;47.71
57624;SHT30;43448;52.264;20.644;2023-08-24T14:20:00;28.77;47.64
57624;SHT30;43448;52.264;20.644;2023-08-24T14:30:00;28.79;47.47
57624;SHT30;43448;52.264;20.644;2023-08-24T14:40:00;28.80;47.39
57624;SHT30;43448;52.264;20.644;2023-08-24T14:50:00;28.83;47.28
57624;SHT30;43448;52.264;20.644;2023-08-24T15:00:00;28.86;47.12
57624;SHT30;43448;52.264;20.644;2023-08-24T15:10:00;28.87;47.06
57624;SHT30;43448;52.264;20.644;2023-08-24T15:20:00;28.89;46.95
57624;SHT30;43448;52.264;20.644;2023-08-24T15:30:00;28.91;46.81
57624;SHT30;43448;52.264;20.644;2023-08-24T15:40:01;28.91;46.72
57624;SHT30;43448;52.264;20.644;2023-08-24T15:50:00;28.91;46.57
57624;SHT30;43448;52.264;20.644;2023-08-24T16:00:00;28.91;45.55
57624;SHT30;43448;52.264;20.644;2023-08-24T16:10:00;28.83;41.44
57624;SHT30;43448;52.264;20.644;2023-08-24T16:20:03;28.77;40.44
57624;SHT30;43448;52.264;20.644;2023-08-24T16:30:00;28.72;41.34
57624;SHT30;43448;52.264;20.644;2023-08-24T16:40:00;28.52;41.83
57624;SHT30;43448;52.264;20.644;2023-08-24T16:50:01;28.26;43.28
57624;SHT30;43448;52.264;20.644;2023-08-24T17:00:00;28.08;43.87
57624;SHT30;43448;52.264;20.644;2023-08-24T17:10:00;27.90;44.70
57624;SHT30;43448;52.264;20.644;2023-08-24T17:20:00;27.74;45.38
57624;SHT30;43448;52.264;20.644;2023-08-24T17:30:00;27.52;47.56
57624;SHT30;43448;52.264;20.644;2023-08-24T17:40:00;27.44;48.41
57624;SHT30;43448;52.264;20.644;2023-08-24T17:50:02;27.28;49.45
57624;SHT30;43448;52.264;20.644;2023-08-24T18:00:00;27.01;50.06
57624;SHT30;43448;52.264;20.644;2023-08-24T18:10:00;26.85;49.03
57624;SHT30;43448;52.264;20.644;2023-08-24T18:20:00;26.68;49.38
57624;SHT30;43448;52.264;20.644;2023-08-24T18:30:00;26.50;49.58
57624;SHT30;43448;52.264;20.644;2023-08-24T18:40:00;26.30;49.92
57624;SHT30;43448;52.264;20.644;2023-08-24T18:50:00;26.17;50.89
57624;SHT30;43448;52.264;20.644;2023-08-24T19:00:00;26.01;49.72
57624;SHT30;43448;52.264;20.644;2023-08-24T19:10:00;25.92;49.68
57624;SHT30;43448;52.264;20.644;2023-08-24T19:20:00;25.82;50.46
57624;SHT30;43448;52.264;20.644;2023-08-24T19:30:00;25.69;50.17
57624;SHT30;43448;52.264;20.644;2023-08-24T19:40:00;25.58;50.06
57624;SHT30;43448;52.264;20.644;2023-08-24T19:50:00;25.52;49.83
57624;SHT30;43448;52.264;20.644;2023-08-24T20:00:00;25.42;50.31
57624;SHT30;43448;52.264;20.644;2023-08-24T20:10:00;25.38;50.61
57624;SHT30;43448;52.264;20.644;2023-08-24T20:20:00;25.28;50.33
57624;SHT30;43448;52.264;20.644;2023-08-24T20:30:00;25.17;50.87
57624;SHT30;43448;52.264;20.644;2023-08-24T20:40:00;25.04;51.48
57624;SHT30;43448;52.264;20.644;2023-08-24T20:50:00;25.06;51.89
57624;SHT30;43448;52.264;20.644;2023-08-24T21:00:00;24.98;52.08
57624;SHT30;43448;52.264;20.644;2023-08-24T21:10:00;24.79;52.64
57624;SHT30;43448;52.264;20.644;2023-08-24T21:20:00;24.77;52.45
57624;SHT30;43448;52.264;20.644;2023-08-24T21:30:00;24.70;52.19
57624;SHT30;43448;52.264;20.644;2023-08-24T21:40:00;24.95;52.22
57624;SHT30;43448;52.264;20.644;2023-08-24T21:50:00;25.59;50.97
57624;SHT30;43448;52.264;20.644;2023-08-24T22:00:00;25.89;50.44
57624;SHT30;43448;52.264;20.644;2023-08-24T22:10:00;26.07;49.90
57624;SHT30;43448;52.264;20.644;2023-08-24T22:20:00;26.24;49.44
57624;SHT30;43448;52.264;20.644;2023-08-24T22:30:00;26.31;49.37
57624;SHT30;43448;52.264;20.644;2023-08-24T22:40:00;26.38;49.07
57624;SHT30;43448;52.264;20.644;2023-08-24T22:50:02;26.40;49.19
57624;SHT30;43448;52.264;20.644;2023-08-24T23:00:02;26.47;49.24
57624;SHT30;43448;52.264;20.644;2023-08-24T23:10:00;26.52;49.19
57624;SHT30;43448;52.264;20.644;2023-08-24T23:20:00;26.58;49.00
57624;SHT30;43448;52.264;20.644;2023-08-24T23:30:00;26.64;48.95
57624;SHT30;43448;52.264;20.644;2023-08-24T23:40:00;26.59;48.89
57624;SHT30;43448;52.264;20.644;2023-08-24T23:50:00;26.62;48.70
